sensor_id;sensor_type;location;lat;lon;timestamp;temperature;humidity
5196;DHT22;2617;51.006;12.436;2023-04-30T00:03:09;8.70;99.90
5196;DHT22;2617;51.006;12.436;2023-04-30T00:08:11;8.60;99.90
5196;DHT22;2617;51.006;12.436;2023-04-30T00:13:12;8.40;99.90
5196;DHT22;2617;51.006;12.436;2023-04-30T00:18:14;8.30;99.90
5196;DHT22;2617;51.006;12.436;2023-04-30T00:23:16;8.20;99.90
5196;DHT22;2617;51.006;12.436;2023-04-30T00:28:18;8.10;99.90
5196;DHT22;2617;51.006;12.436;2023-04-30T00:33:19;8.00;99.90
5196;DHT22;2617;51.006;12.436;2023-04-30T00:38:21;7.80;99.90
5196;DHT22;2617;51.006;12.436;2023-04-30T00:43:23;7.70;99.90
5196;DHT22;2617;51.006;12.436;2023-04-30T00:48:24;7.50;99.90
5196;DHT22;2617;51.006;12.436;2023-04-30T00:53:27;7.30;99.90
5196;DHT22;2617;51.006;12.436;2023-04-30T00:58:29;7.20;99.90
5196;DHT22;2617;51.006;12.436;2023-04-30T01:03:30;7.10;99.90
5196;DHT22;2617;51.006;12.436;2023-04-30T01:08:32;7.10;99.90
5196;DHT22;2617;51.006;12.436;2023-04-30T01:13:40;6.90;99.90
5196;DHT22;2617;51.006;12.436;2023-04-30T01:18:47;6.80;99.90
5196;DHT22;2617;51.006;12.436;2023-04-30T01:29:13;6.70;99.90
5196;DHT22;2617;51.006;12.436;2023-04-30T01:34:13;6.60;99.90
5196;DHT22;2617;51.006;12.436;2023-04-30T01:39:19;6.40;99.90
5196;DHT22;2617;51.006;12.436;2023-04-30T01:44:23;6.30;99.90
5196;DHT22;2617;51.006;12.436;2023-04-30T01:49:31;6.10;99.90
5196;DHT22;2617;51.006;12.436;2023-04-30T01:59:59;6.00;99.90
5196;DHT22;2617;51.006;12.436;2023-04-30T02:05:02;5.80;99.90
5196;DHT22;2617;51.006;12.436;2023-04-30T02:10:04;5.80;99.90
5196;DHT22;2617;51.006;12.436;2023-04-30T02:15:07;5.70;99.90
5196;DHT22;2617;51.006;12.436;2023-04-30T02:20:10;5.70;99.90
5196;DHT22;2617;51.006;12.436;2023-04-30T02:25:11;5.70;99.90
5196;DHT22;2617;51.006;12.436;2023-04-30T02:30:13;5.60;99.90
5196;DHT22;2617;51.006;12.436;2023-04-30T02:35:15;5.50;99.90
5196;DHT22;2617;51.006;12.436;2023-04-30T02:40:17;5.50;99.90
5196;DHT22;2617;51.006;12.436;2023-04-30T02:45:18;5.60;99.90
5196;DHT22;2617;51.006;12.436;2023-04-30T02:50:20;5.40;99.90
5196;DHT22;2617;51.006;12.436;2023-04-30T02:55:22;5.30;99.90
5196;DHT22;2617;51.006;12.436;2023-04-30T03:00:24;5.20;99.90
5196;DHT22;2617;51.006;12.436;2023-04-30T03:05:27;5.10;99.90
5196;DHT22;2617;51.006;12.436;2023-04-30T03:10:29;5.10;99.90
5196;DHT22;2617;51.006;12.436;2023-04-30T03:15:31;5.10;99.90
5196;DHT22;2617;51.006;12.436;2023-04-30T03:20:34;5.10;99.90
5196;DHT22;2617;51.006;12.436;2023-04-30T03:25:35;5.00;99.90
5196;DHT22;2617;51.006;12.436;2023-04-30T03:30:37;4.90;99.90
5196;DHT22;2617;51.006;12.436;2023-04-30T03:35:39;4.80;99.90
5196;DHT22;2617;51.006;12.436;2023-04-30T03:40:41;4.70;99.90
5196;DHT22;2617;51.006;12.436;2023-04-30T03:45:42;4.60;99.90
5196;DHT22;2617;51.006;12.436;2023-04-30T03:50:44;4.60;99.90
5196;DHT22;2617;51.006;12.436;2023-04-30T03:55:47;4.50;99.90
5196;DHT22;2617;51.006;12.436;2023-04-30T04:00:48;4.60;99.90
5196;DHT22;2617;51.006;12.436;2023-04-30T04:05:51;4.70;99.90
5196;DHT22;2617;51.006;12.436;2023-04-30T04:10:52;4.70;99.90
5196;DHT22;2617;51.006;12.436;2023-04-30T04:15:55;5.00;99.90
5196;DHT22;2617;51.006;12.436;2023-04-30T04:20:57;4.90;99.90
5196;DHT22;2617;51.006;12.436;2023-04-30T04:25:58;6.10;99.90
5196;DHT22;2617;51.006;12.436;2023-04-30T04:31:00;8.20;99.90
5196;DHT22;2617;51.006;12.436;2023-04-30T04:36:02;9.80;99.90
5196;DHT22;2617;51.006;12.436;2023-04-30T04:41:04;11.20;99.90
5196;DHT22;2617;51.006;12.436;2023-04-30T04:46:06;12.40;99.90
5196;DHT22;2617;51.006;12.436;2023-04-30T04:51:08;13.00;99.90
5196;DHT22;2617;51.006;12.436;2023-04-30T04:56:09;11.70;99.90
5196;DHT22;2617;51.006;12.436;2023-04-30T05:01:11;11.10;99.90
5196;DHT22;2617;51.006;12.436;2023-04-30T05:06:13;12.60;99.90
5196;DHT22;2617;51.006;12.436;2023-04-30T05:11:15;12.50;99.90
5196;DHT22;2617;51.006;12.436;2023-04-30T05:16:17;14.10;98.30
5196;DHT22;2617;51.006;12.436;2023-04-30T05:21:19;15.00;93.90
5196;DHT22;2617;51.006;12.436;2023-04-30T05:26:20;14.70;93.90
5196;DHT22;2617;51.006;12.436;2023-04-30T05:31:22;14.30;94.50
5196;DHT22;2617;51.006;12.436;2023-04-30T05:36:24;13.10;95.50
5196;DHT22;2617;51.006;12.436;2023-04-30T05:41:26;9.60;99.90
5196;DHT22;2617;51.006;12.436;2023-04-30T05:46:28;9.60;99.90
5196;DHT22;2617;51.006;12.436;2023-04-30T05:51:30;8.80;99.90
5196;DHT22;2617;51.006;12.436;2023-04-30T05:56:32;8.90;99.90
5196;DHT22;2617;51.006;12.436;2023-04-30T06:01:34;8.90;99.90
5196;DHT22;2617;51.006;12.436;2023-04-30T06:06:36;8.60;99.90
5196;DHT22;2617;51.006;12.436;2023-04-30T06:11:38;8.30;99.90
5196;DHT22;2617;51.006;12.436;2023-04-30T06:16:40;8.20;99.90
5196;DHT22;2617;51.006;12.436;2023-04-30T06:21:42;8.30;99.90
5196;DHT22;2617;51.006;12.436;2023-04-30T06:26:44;8.30;99.90
5196;DHT22;2617;51.006;12.436;2023-04-30T06:31:46;8.40;99.90
5196;DHT22;2617;51.006;12.436;2023-04-30T06:36:48;8.00;99.90
5196;DHT22;2617;51.006;12.436;2023-04-30T06:41:50;8.00;99.90
5196;DHT22;2617;51.006;12.436;2023-04-30T06:46:52;8.00;99.90
5196;DHT22;2617;51.006;12.436;2023-04-30T06:51:54;7.90;99.90
5196;DHT22;2617;51.006;12.436;2023-04-30T06:56:56;8.30;99.90
5196;DHT22;2617;51.006;12.436;2023-04-30T07:01:58;8.20;99.90
5196;DHT22;2617;51.006;12.436;2023-04-30T07:07:00;8.40;99.90
5196;DHT22;2617;51.006;12.436;2023-04-30T07:12:01;8.60;99.90
5196;DHT22;2617;51.006;12.436;2023-04-30T07:17:03;9.10;99.90
5196;DHT22;2617;51.006;12.436;2023-04-30T07:22:05;9.60;99.90
5196;DHT22;2617;51.006;12.436;2023-04-30T07:27:07;9.50;99.90
5196;DHT22;2617;51.006;12.436;2023-04-30T07:32:08;9.50;99.90
5196;DHT22;2617;51.006;12.436;2023-04-30T07:37:10;9.30;99.90
5196;DHT22;2617;51.006;12.436;2023-04-30T07:42:12;9.10;99.90
5196;DHT22;2617;51.006;12.436;2023-04-30T07:47:14;9.20;99.90
5196;DHT22;2617;51.006;12.436;2023-04-30T07:52:16;9.80;99.90
5196;DHT22;2617;51.006;12.436;2023-04-30T07:57:18;9.50;99.90
5196;DHT22;2617;51.006;12.436;2023-04-30T08:02:20;9.50;99.90
5196;DHT22;2617;51.006;12.436;2023-04-30T08:07:22;10.70;99.90
5196;DHT22;2617;51.006;12.436;2023-04-30T08:12:25;10.20;99.90
5196;DHT22;2617;51.006;12.436;2023-04-30T08:17:27;10.00;99.90
5196;DHT22;2617;51.006;12.436;2023-04-30T08:22:29;10.00;99.90
5196;DHT22;2617;51.006;12.436;2023-04-30T08:27:31;9.90;99.90
5196;DHT22;2617;51.006;12.436;2023-04-30T08:32:34;10.50;99.90
5196;DHT22;2617;51.006;12.436;2023-04-30T08:37:36;11.40;99.90
5196;DHT22;2617;51.006;12.436;2023-04-30T08:42:40;10.50;99.90
5196;DHT22;2617;51.006;12.436;2023-04-30T08:47:40;10.50;99.90
5196;DHT22;2617;51.006;12.436;2023-04-30T08:52:42;10.90;99.90
5196;DHT22;2617;51.006;12.436;2023-04-30T08:57:44;11.00;99.90
5196;DHT22;2617;51.006;12.436;2023-04-30T09:02:45;10.50;99.90
5196;DHT22;2617;51.006;12.436;2023-04-30T09:07:47;10.80;99.90
5196;DHT22;2617;51.006;12.436;2023-04-30T09:12:58;11.70;99.90
5196;DHT22;2617;51.006;12.436;2023-04-30T09:18:10;11.70;99.90
5196;DHT22;2617;51.006;12.436;2023-04-30T09:23:10;11.00;99.90
5196;DHT22;2617;51.006;12.436;2023-04-30T09:28:12;10.90;99.90
5196;DHT22;2617;51.006;12.436;2023-04-30T09:33:14;11.00;99.90
5196;DHT22;2617;51.006;12.436;2023-04-30T09:38:25;11.30;99.10
5196;DHT22;2617;51.006;12.436;2023-04-30T09:43:27;12.80;98.80
5196;DHT22;2617;51.006;12.436;2023-04-30T09:48:29;12.80;98.50
5196;DHT22;2617;51.006;12.436;2023-04-30T09:53:30;12.40;96.40
5196;DHT22;2617;51.006;12.436;2023-04-30T09:58:35;11.50;98.50
5196;DHT22;2617;51.006;12.436;2023-04-30T10:03:38;11.50;98.40
5196;DHT22;2617;51.006;12.436;2023-04-30T10:08:40;11.80;99.10
5196;DHT22;2617;51.006;12.436;2023-04-30T10:13:49;11.70;99.00
5196;DHT22;2617;51.006;12.436;2023-04-30T10:18:48;12.20;97.40
5196;DHT22;2617;51.006;12.436;2023-04-30T10:23:49;12.50;96.60
5196;DHT22;2617;51.006;12.436;2023-04-30T10:28:51;12.30;95.40
5196;DHT22;2617;51.006;12.436;2023-04-30T10:34:11;12.20;95.30
5196;DHT22;2617;51.006;12.436;2023-04-30T10:39:10;11.90;95.70
5196;DHT22;2617;51.006;12.436;2023-04-30T10:44:11;11.90;91.40
5196;DHT22;2617;51.006;12.436;2023-04-30T10:49:13;11.50;93.00
5196;DHT22;2617;51.006;12.436;2023-04-30T10:54:15;12.00;90.50
5196;DHT22;2617;51.006;12.436;2023-04-30T10:59:19;12.70;91.00
5196;DHT22;2617;51.006;12.436;2023-04-30T11:04:21;12.80;86.70
5196;DHT22;2617;51.006;12.436;2023-04-30T11:14:41;12.20;87.60
5196;DHT22;2617;51.006;12.436;2023-04-30T11:19:46;12.20;87.60
5196;DHT22;2617;51.006;12.436;2023-04-30T11:24:56;12.10;81.20
5196;DHT22;2617;51.006;12.436;2023-04-30T11:29:55;12.20;77.20
5196;DHT22;2617;51.006;12.436;2023-04-30T11:34:57;12.30;67.10
5196;DHT22;2617;51.006;12.436;2023-04-30T11:40:01;12.60;69.80
5196;DHT22;2617;51.006;12.436;2023-04-30T11:45:05;12.40;65.70
5196;DHT22;2617;51.006;12.436;2023-04-30T11:50:08;13.20;67.80
5196;DHT22;2617;51.006;12.436;2023-04-30T11:55:12;13.20;67.80
5196;DHT22;2617;51.006;12.436;2023-04-30T12:00:16;13.60;67.60
5196;DHT22;2617;51.006;12.436;2023-04-30T12:05:18;13.70;68.50
5196;DHT22;2617;51.006;12.436;2023-04-30T12:10:19;14.10;66.10
5196;DHT22;2617;51.006;12.436;2023-04-30T12:15:21;14.50;66.20
5196;DHT22;2617;51.006;12.436;2023-04-30T12:20:25;14.60;66.80
5196;DHT22;2617;51.006;12.436;2023-04-30T12:25:27;14.80;65.90
5196;DHT22;2617;51.006;12.436;2023-04-30T12:30:27;14.90;62.00
5196;DHT22;2617;51.006;12.436;2023-04-30T12:35:30;14.90;65.80
5196;DHT22;2617;51.006;12.436;2023-04-30T12:40:32;14.70;68.90
5196;DHT22;2617;51.006;12.436;2023-04-30T12:45:43;14.70;69.10
5196;DHT22;2617;51.006;12.436;2023-04-30T12:50:49;14.40;63.90
5196;DHT22;2617;51.006;12.436;2023-04-30T13:01:04;13.80;67.90
5196;DHT22;2617;51.006;12.436;2023-04-30T13:06:05;13.80;67.80
5196;DHT22;2617;51.006;12.436;2023-04-30T13:11:08;13.60;71.50
5196;DHT22;2617;51.006;12.436;2023-04-30T13:16:11;13.60;70.60
5196;DHT22;2617;51.006;12.436;2023-04-30T13:21:13;13.90;68.10
5196;DHT22;2617;51.006;12.436;2023-04-30T13:26:14;13.90;68.60
5196;DHT22;2617;51.006;12.436;2023-04-30T13:31:16;13.80;67.30
5196;DHT22;2617;51.006;12.436;2023-04-30T13:36:18;13.80;67.10
5196;DHT22;2617;51.006;12.436;2023-04-30T13:41:20;14.00;67.90
5196;DHT22;2617;51.006;12.436;2023-04-30T13:46:22;14.20;69.50
5196;DHT22;2617;51.006;12.436;2023-04-30T13:51:24;14.00;66.90
5196;DHT22;2617;51.006;12.436;2023-04-30T13:56:26;14.00;66.80
5196;DHT22;2617;51.006;12.436;2023-04-30T14:01:28;14.00;68.70
5196;DHT22;2617;51.006;12.436;2023-04-30T14:06:29;14.30;68.60
5196;DHT22;2617;51.006;12.436;2023-04-30T14:11:31;14.50;68.80
5196;DHT22;2617;51.006;12.436;2023-04-30T14:16:33;15.00;62.70
5196;DHT22;2617;51.006;12.436;2023-04-30T14:21:35;15.10;62.30
5196;DHT22;2617;51.006;12.436;2023-04-30T14:26:37;15.00;63.80
5196;DHT22;2617;51.006;12.436;2023-04-30T14:31:38;14.70;65.10
5196;DHT22;2617;51.006;12.436;2023-04-30T14:36:40;14.30;63.60
5196;DHT22;2617;51.006;12.436;2023-04-30T14:41:42;14.40;64.80
5196;DHT22;2617;51.006;12.436;2023-04-30T14:46:44;15.00;63.20
5196;DHT22;2617;51.006;12.436;2023-04-30T14:51:46;15.10;63.30
5196;DHT22;2617;51.006;12.436;2023-04-30T14:56:48;14.80;64.40
5196;DHT22;2617;51.006;12.436;2023-04-30T15:01:50;14.40;61.40
5196;DHT22;2617;51.006;12.436;2023-04-30T15:06:52;14.40;61.30
5196;DHT22;2617;51.006;12.436;2023-04-30T15:11:54;14.50;59.80
5196;DHT22;2617;51.006;12.436;2023-04-30T15:16:56;14.40;62.80
5196;DHT22;2617;51.006;12.436;2023-04-30T15:21:57;14.40;62.80
5196;DHT22;2617;51.006;12.436;2023-04-30T15:26:59;14.20;64.10
5196;DHT22;2617;51.006;12.436;2023-04-30T15:32:01;14.20;63.80
5196;DHT22;2617;51.006;12.436;2023-04-30T15:37:03;14.30;64.70
5196;DHT22;2617;51.006;12.436;2023-04-30T15:42:05;14.40;65.10
5196;DHT22;2617;51.006;12.436;2023-04-30T15:47:06;14.10;64.00
5196;DHT22;2617;51.006;12.436;2023-04-30T15:52:08;14.00;65.80
5196;DHT22;2617;51.006;12.436;2023-04-30T15:57:10;14.00;64.50
5196;DHT22;2617;51.006;12.436;2023-04-30T16:02:13;14.10;63.20
5196;DHT22;2617;51.006;12.436;2023-04-30T16:07:15;14.40;61.70
5196;DHT22;2617;51.006;12.436;2023-04-30T16:12:16;14.00;60.30
5196;DHT22;2617;51.006;12.436;2023-04-30T16:17:18;13.90;62.10
5196;DHT22;2617;51.006;12.436;2023-04-30T16:22:20;13.80;61.40
5196;DHT22;2617;51.006;12.436;2023-04-30T16:27:22;13.70;59.70
5196;DHT22;2617;51.006;12.436;2023-04-30T16:32:25;13.50;58.80
5196;DHT22;2617;51.006;12.436;2023-04-30T16:37:27;13.40;59.60
5196;DHT22;2617;51.006;12.436;2023-04-30T16:42:29;13.40;58.90
5196;DHT22;2617;51.006;12.436;2023-04-30T16:47:31;13.50;60.80
5196;DHT22;2617;51.006;12.436;2023-04-30T16:52:34;13.50;59.40
5196;DHT22;2617;51.006;12.436;2023-04-30T16:57:36;13.40;59.40
5196;DHT22;2617;51.006;12.436;2023-04-30T17:02:37;13.40;58.50
5196;DHT22;2617;51.006;12.436;2023-04-30T17:07:40;13.30;58.50
5196;DHT22;2617;51.006;12.436;2023-04-30T17:12:41;13.30;58.50
5196;DHT22;2617;51.006;12.436;2023-04-30T17:17:44;13.20;59.50
5196;DHT22;2617;51.006;12.436;2023-04-30T17:22:45;13.20;61.20
5196;DHT22;2617;51.006;12.436;2023-04-30T17:27:47;13.10;65.50
5196;DHT22;2617;51.006;12.436;2023-04-30T17:32:50;12.80;64.10
5196;DHT22;2617;51.006;12.436;2023-04-30T17:37:52;12.80;64.00
5196;DHT22;2617;51.006;12.436;2023-04-30T17:42:53;12.80;63.50
5196;DHT22;2617;51.006;12.436;2023-04-30T17:47:55;12.80;62.70
5196;DHT22;2617;51.006;12.436;2023-04-30T17:52:56;12.90;63.20
5196;DHT22;2617;51.006;12.436;2023-04-30T17:57:58;12.90;63.70
5196;DHT22;2617;51.006;12.436;2023-04-30T18:03:00;12.80;63.30
5196;DHT22;2617;51.006;12.436;2023-04-30T18:08:03;12.20;67.60
5196;DHT22;2617;51.006;12.436;2023-04-30T18:13:05;12.00;69.70
5196;DHT22;2617;51.006;12.436;2023-04-30T18:18:07;12.00;69.60
5196;DHT22;2617;51.006;12.436;2023-04-30T18:23:09;11.70;71.30
5196;DHT22;2617;51.006;12.436;2023-04-30T18:28:10;11.50;72.70
5196;DHT22;2617;51.006;12.436;2023-04-30T18:33:12;11.20;73.80
5196;DHT22;2617;51.006;12.436;2023-04-30T18:38:15;11.10;74.00
5196;DHT22;2617;51.006;12.436;2023-04-30T18:43:16;11.00;76.30
5196;DHT22;2617;51.006;12.436;2023-04-30T18:48:19;10.50;79.50
5196;DHT22;2617;51.006;12.436;2023-04-30T18:53:21;10.50;79.40
5196;DHT22;2617;51.006;12.436;2023-04-30T18:58:22;10.30;81.10
5196;DHT22;2617;51.006;12.436;2023-04-30T19:03:24;10.10;83.30
5196;DHT22;2617;51.006;12.436;2023-04-30T19:08:26;9.90;86.70
5196;DHT22;2617;51.006;12.436;2023-04-30T19:13:28;9.70;88.70
5196;DHT22;2617;51.006;12.436;2023-04-30T19:18:29;9.50;90.40
5196;DHT22;2617;51.006;12.436;2023-04-30T19:23:32;9.20;92.60
5196;DHT22;2617;51.006;12.436;2023-04-30T19:28:33;9.20;92.60
5196;DHT22;2617;51.006;12.436;2023-04-30T19:33:35;9.00;93.70
5196;DHT22;2617;51.006;12.436;2023-04-30T19:38:37;8.80;94.60
5196;DHT22;2617;51.006;12.436;2023-04-30T19:43:39;8.70;95.30
5196;DHT22;2617;51.006;12.436;2023-04-30T19:48:42;8.60;95.80
5196;DHT22;2617;51.006;12.436;2023-04-30T19:53:42;8.50;96.00
5196;DHT22;2617;51.006;12.436;2023-04-30T19:58:44;8.50;96.40
5196;DHT22;2617;51.006;12.436;2023-04-30T20:03:46;8.40;96.70
5196;DHT22;2617;51.006;12.436;2023-04-30T20:08:48;8.10;98.40
5196;DHT22;2617;51.006;12.436;2023-04-30T20:13:52;7.90;99.40
5196;DHT22;2617;51.006;12.436;2023-04-30T20:18:52;7.90;99.40
5196;DHT22;2617;51.006;12.436;2023-04-30T20:23:54;7.70;99.90
5196;DHT22;2617;51.006;12.436;2023-04-30T20:28:57;7.40;99.90
5196;DHT22;2617;51.006;12.436;2023-04-30T20:33:58;7.40;99.90
5196;DHT22;2617;51.006;12.436;2023-04-30T20:39:00;7.30;99.90
5196;DHT22;2617;51.006;12.436;2023-04-30T20:44:02;7.10;99.90
5196;DHT22;2617;51.006;12.436;2023-04-30T20:49:05;7.00;99.90
5196;DHT22;2617;51.006;12.436;2023-04-30T20:54:07;6.80;99.90
5196;DHT22;2617;51.006;12.436;2023-04-30T20:59:10;6.70;99.90
5196;DHT22;2617;51.006;12.436;2023-04-30T21:04:12;6.70;99.90
5196;DHT22;2617;51.006;12.436;2023-04-30T21:09:13;6.70;99.90
5196;DHT22;2617;51.006;12.436;2023-04-30T21:14:15;6.50;99.90
5196;DHT22;2617;51.006;12.436;2023-04-30T21:19:18;6.40;99.90
5196;DHT22;2617;51.006;12.436;2023-04-30T21:24:19;6.40;99.90
5196;DHT22;2617;51.006;12.436;2023-04-30T21:29:21;6.30;99.90
5196;DHT22;2617;51.006;12.436;2023-04-30T21:34:23;6.20;99.90
5196;DHT22;2617;51.006;12.436;2023-04-30T21:39:25;6.10;99.90
5196;DHT22;2617;51.006;12.436;2023-04-30T21:44:29;5.90;99.90
5196;DHT22;2617;51.006;12.436;2023-04-30T21:49:29;5.90;99.90
5196;DHT22;2617;51.006;12.436;2023-04-30T21:54:30;5.90;99.90
5196;DHT22;2617;51.006;12.436;2023-04-30T21:59:33;5.80;99.90
5196;DHT22;2617;51.006;12.436;2023-04-30T22:04:35;5.60;99.90
5196;DHT22;2617;51.006;12.436;2023-04-30T22:09:37;5.50;99.90
5196;DHT22;2617;51.006;12.436;2023-04-30T22:14:39;5.50;99.90
5196;DHT22;2617;51.006;12.436;2023-04-30T22:19:41;5.40;99.90
5196;DHT22;2617;51.006;12.436;2023-04-30T22:24:42;5.30;99.90
5196;DHT22;2617;51.006;12.436;2023-04-30T22:29:47;5.20;99.90
5196;DHT22;2617;51.006;12.436;2023-04-30T22:34:46;5.10;99.90
5196;DHT22;2617;51.006;12.436;2023-04-30T22:39:48;5.00;99.90
5196;DHT22;2617;51.006;12.436;2023-04-30T22:44:49;4.90;99.90
5196;DHT22;2617;51.006;12.436;2023-04-30T22:49:54;4.60;99.90
5196;DHT22;2617;51.006;12.436;2023-04-30T22:54:58;4.50;99.90
5196;DHT22;2617;51.006;12.436;2023-04-30T22:59:59;4.50;99.90
5196;DHT22;2617;51.006;12.436;2023-04-30T23:05:00;4.40;99.90
5196;DHT22;2617;51.006;12.436;2023-04-30T23:10:03;4.10;99.90
5196;DHT22;2617;51.006;12.436;2023-04-30T23:15:05;4.10;99.90
5196;DHT22;2617;51.006;12.436;2023-04-30T23:20:08;4.10;99.90
5196;DHT22;2617;51.006;12.436;2023-04-30T23:25:10;4.00;99.90
5196;DHT22;2617;51.006;12.436;2023-04-30T23:30:12;4.00;99.90
5196;DHT22;2617;51.006;12.436;2023-04-30T23:35:14;3.90;99.90
5196;DHT22;2617;51.006;12.436;2023-04-30T23:40:15;3.80;99.90
5196;DHT22;2617;51.006;12.436;2023-04-30T23:45:17;3.70;99.90
5196;DHT22;2617;51.006;12.436;2023-04-30T23:50:19;3.50;99.90
5196;DHT22;2617;51.006;12.436;2023-04-30T23:55:22;3.50;99.90
